createdAt,value
2023-05-10T00:01:27.138Z,98991.20
2023-05-10T00:06:28.940Z,98986.79
2023-05-10T00:11:30.632Z,98980.22
2023-05-10T00:16:32.402Z,98978.05
2023-05-10T00:21:34.779Z,98975.38
2023-05-10T00:26:36.497Z,98977.64
2023-05-10T00:31:38.580Z,98978.14
2023-05-10T00:36:40.264Z,98975.05
2023-05-10T00:41:42.630Z,98975.80
2023-05-10T00:46:44.584Z,98974.48
2023-05-10T00:51:46.827Z,98966.46
2023-05-10T00:56:50.189Z,98968.32
2023-05-10T01:01:53.085Z,98967.13
2023-05-10T01:06:54.924Z,98961.55
2023-05-10T01:11:57.495Z,98960.86
2023-05-10T01:16:59.876Z,98960.11
2023-05-10T01:22:20.028Z,98953.92
2023-05-10T01:27:48.810Z,98948.43
2023-05-10T01:33:15.597Z,98947.21
2023-05-10T01:38:43.827Z,98949.64
2023-05-10T01:44:13.625Z,98941.30
2023-05-10T01:49:24.581Z,98945.52
2023-05-10T01:54:28.180Z,98938.14
2023-05-10T01:59:37.217Z,98934.48
2023-05-10T02:04:41.851Z,98930.44
2023-05-10T02:09:48.484Z,98930.86
2023-05-10T02:14:52.187Z,98925.73
2023-05-10T02:19:56.206Z,98923.98
2023-05-10T02:25:00.528Z,98919.33
2023-05-10T02:30:04.499Z,98916.73
2023-05-10T02:35:07.229Z,98917.05
2023-05-10T02:40:10.945Z,98915.50
2023-05-10T02:45:15.529Z,98916.50
2023-05-10T02:50:17.989Z,98923.92
2023-05-10T02:55:23.859Z,98923.39
2023-05-10T03:00:26.784Z,98922.31
2023-05-10T03:05:28.536Z,98923.48
2023-05-10T03:10:33.650Z,98924.73
2023-05-10T03:15:48.608Z,98923.48
2023-05-10T03:20:56.917Z,98920.38
2023-05-10T03:25:59.611Z,98920.11
2023-05-10T03:31:02.904Z,98919.73
2023-05-10T03:36:06.545Z,98918.77
2023-05-10T03:41:08.610Z,98911.92
2023-05-10T03:46:10.970Z,98911.35
2023-05-10T03:51:13.042Z,98909.12
2023-05-10T03:56:15.021Z,98901.04
2023-05-10T04:07:14.100Z,98901.81
2023-05-10T04:12:16.126Z,98901.58
2023-05-10T04:17:17.805Z,98902.53
2023-05-10T04:22:19.473Z,98904.61
2023-05-10T04:27:21.194Z,98908.22
2023-05-10T04:32:22.898Z,98906.23
2023-05-10T04:37:24.614Z,98904.55
2023-05-10T04:42:26.319Z,98908.70
2023-05-10T04:47:28.090Z,98909.34
2023-05-10T04:52:29.899Z,98904.23
2023-05-10T04:57:31.548Z,98903.38
2023-05-10T05:02:33.228Z,98898.63
2023-05-10T05:07:35.056Z,98895.77
2023-05-10T05:12:36.737Z,98890.48
2023-05-10T05:17:38.474Z,98891.21
2023-05-10T05:22:40.218Z,98893.98
2023-05-10T05:27:42.270Z,98896.40
2023-05-10T05:32:44.005Z,98890.19
2023-05-10T05:37:45.732Z,98890.20
2023-05-10T05:42:47.418Z,98891.95
2023-05-10T05:47:49.547Z,98893.33
2023-05-10T05:52:51.340Z,98893.81
2023-05-10T05:57:53.174Z,98891.69
2023-05-10T06:02:54.985Z,98886.34
2023-05-10T06:07:57.488Z,98881.51
2023-05-10T06:12:59.269Z,98878.01
2023-05-10T06:18:01.478Z,98877.19
2023-05-10T06:23:03.359Z,98875.22
2023-05-10T06:28:05.147Z,98879.84
2023-05-10T06:33:06.898Z,98877.39
2023-05-10T06:38:08.711Z,98877.15
2023-05-10T06:43:10.933Z,98872.88
2023-05-10T06:48:12.680Z,98874.89
2023-05-10T06:53:14.511Z,98872.59
2023-05-10T06:58:16.333Z,98874.77
2023-05-10T07:03:18.115Z,98870.36
2023-05-10T07:08:19.942Z,98867.05
2023-05-10T07:13:21.766Z,98862.36
2023-05-10T07:18:23.823Z,98865.98
2023-05-10T07:23:25.770Z,98862.36
2023-05-10T07:28:27.573Z,98854.88
2023-05-10T07:33:29.227Z,98856.30
2023-05-10T07:38:30.867Z,98845.64
2023-05-10T07:43:32.504Z,98848.50
2023-05-10T07:48:34.255Z,98848.98
2023-05-10T07:53:36.445Z,98846.69
2023-05-10T07:58:38.170Z,98845.95
2023-05-10T08:03:39.950Z,98844.23
2023-05-10T08:08:42.191Z,98840.95
2023-05-10T08:13:44.559Z,98837.19
2023-05-10T08:18:48.081Z,98838.71
2023-05-10T08:23:50.319Z,98831.97
2023-05-10T08:28:52.016Z,98831.34
2023-05-10T08:34:03.894Z,98833.76
2023-05-10T08:39:07.733Z,98833.45
2023-05-10T08:44:13.691Z,98830.80
2023-05-10T08:49:21.126Z,98829.55
2023-05-10T08:54:23.233Z,98830.65
2023-05-10T08:59:25.087Z,98830.33
2023-05-10T09:04:27.314Z,98830.81
2023-05-10T09:09:29.179Z,98831.86
2023-05-10T09:14:35.020Z,98825.09
2023-05-10T09:19:36.728Z,98823.88
2023-05-10T09:24:43.395Z,98821.76
2023-05-10T09:29:45.116Z,98822.48
2023-05-10T09:34:51.068Z,98816.67
2023-05-10T09:39:55.645Z,98818.28
2023-05-10T09:45:02.703Z,98824.91
2023-05-10T09:50:05.686Z,98822.17
2023-05-10T09:55:08.397Z,98820.33
2023-05-10T10:00:13.545Z,98820.31
2023-05-10T10:05:16.142Z,98816.06
2023-05-10T10:10:18.157Z,98810.70
2023-05-10T10:15:21.505Z,98808.58
2023-05-10T10:20:24.253Z,98802.02
2023-05-10T10:25:26.512Z,98797.43
2023-05-10T10:30:36.175Z,98793.34
2023-05-10T10:35:38.414Z,98794.22
2023-05-10T10:40:40.540Z,98794.13
2023-05-10T10:45:42.368Z,98783.33
2023-05-10T10:50:47.812Z,98783.46
2023-05-10T10:55:49.907Z,98778.95
2023-05-10T11:01:09.749Z,98781.14
2023-05-10T11:06:11.547Z,98781.38
2023-05-10T11:11:16.153Z,98769.59
2023-05-10T11:16:26.257Z,98759.93
2023-05-10T11:21:28.162Z,98765.67
2023-05-10T11:26:35.295Z,98755.25
2023-05-10T11:31:44.819Z,98751.55
2023-05-10T11:36:52.772Z,98753.09
2023-05-10T11:41:55.679Z,98747.41
2023-05-10T11:47:02.569Z,98737.15
2023-05-10T11:52:06.192Z,98741.89
2023-05-10T11:57:07.986Z,98745.91
2023-05-10T12:02:09.716Z,98741.59
2023-05-10T12:07:11.470Z,98741.66
2023-05-10T12:12:19.234Z,98739.08
2023-05-10T12:17:20.908Z,98739.67
2023-05-10T12:22:22.758Z,98742.98
2023-05-10T12:27:24.435Z,98738.75
2023-05-10T12:32:44.915Z,98740.27
2023-05-10T12:37:46.596Z,98737.73
2023-05-10T12:42:49.797Z,98738.00
2023-05-10T12:47:51.721Z,98732.14
2023-05-10T12:52:53.499Z,98726.75
2023-05-10T12:57:55.430Z,98729.21
2023-05-10T13:02:57.304Z,98722.23
2023-05-10T13:07:59.037Z,98717.70
2023-05-10T13:13:00.906Z,98715.34
2023-05-10T13:18:02.807Z,98710.52
2023-05-10T13:23:04.768Z,98702.41
2023-05-10T13:28:06.744Z,98702.01
2023-05-10T13:33:08.511Z,98698.86
2023-05-10T13:38:10.546Z,98695.88
2023-05-10T13:43:12.367Z,98691.77
2023-05-10T13:48:14.206Z,98690.98
2023-05-10T13:53:16.524Z,98688.06
2023-05-10T13:58:18.306Z,98682.64
2023-05-10T14:03:20.248Z,98678.43
2023-05-10T14:08:22.817Z,98672.98
2023-05-10T14:13:24.833Z,98676.16
2023-05-10T14:18:26.922Z,98671.59
2023-05-10T14:23:29.860Z,98664.69
2023-05-10T14:28:31.919Z,98668.60
2023-05-10T14:33:33.745Z,98667.22
2023-05-10T14:38:35.816Z,98661.02
2023-05-10T14:43:37.800Z,98661.52
2023-05-10T14:48:39.553Z,98659.80
2023-05-10T14:53:41.424Z,98657.35
2023-05-10T14:58:43.321Z,98656.55
2023-05-10T15:03:45.129Z,98654.70
2023-05-10T15:08:47.290Z,98660.06
2023-05-10T15:13:49.022Z,98661.13
2023-05-10T15:18:50.995Z,98659.27
2023-05-10T15:23:53.667Z,98661.10
2023-05-10T15:28:55.405Z,98658.50
2023-05-10T15:34:00.081Z,98664.16
2023-05-10T15:39:01.890Z,98663.39
2023-05-10T15:44:04.216Z,98661.52
2023-05-10T15:49:06.920Z,98660.90
2023-05-10T15:54:09.711Z,98657.52
2023-05-10T15:59:11.949Z,98656.95
2023-05-10T16:04:14.028Z,98654.93
2023-05-10T16:09:16.010Z,98649.81
2023-05-10T16:14:17.842Z,98650.60
2023-05-10T16:19:19.913Z,98655.45
2023-05-10T16:24:21.857Z,98657.02
2023-05-10T16:29:23.638Z,98658.66
2023-05-10T16:34:25.514Z,98658.15
2023-05-10T16:39:27.393Z,98659.02
2023-05-10T16:44:29.125Z,98659.00
2023-05-10T16:49:30.983Z,98659.93
2023-05-10T16:54:32.781Z,98662.58
2023-05-10T16:59:34.533Z,98668.63
2023-05-10T17:04:36.356Z,98677.54
2023-05-10T17:09:38.110Z,98683.84
2023-05-10T17:14:40.135Z,98684.20
2023-05-10T17:19:44.989Z,98686.67
2023-05-10T17:24:46.759Z,98688.83
2023-05-10T17:29:48.493Z,98691.65
2023-05-10T17:34:50.227Z,98691.37
2023-05-10T17:39:52.193Z,98695.10
2023-05-10T17:44:54.017Z,98695.86
2023-05-10T17:49:56.066Z,98698.54
2023-05-10T17:54:58.337Z,98701.41
2023-05-10T18:00:00.266Z,98702.89
2023-05-10T18:05:03.170Z,98709.10
2023-05-10T18:10:06.694Z,98719.86
2023-05-10T18:15:09.236Z,98725.77
2023-05-10T18:20:11.547Z,98728.27
2023-05-10T18:25:13.377Z,98733.08
2023-05-10T18:30:15.268Z,98740.14
2023-05-10T18:35:17.476Z,98747.09
2023-05-10T18:40:19.675Z,98752.27
2023-05-10T18:45:21.690Z,98755.29
2023-05-10T18:50:23.425Z,98767.09
2023-05-10T18:55:28.396Z,98774.18
2023-05-10T19:00:30.102Z,98781.77
2023-05-10T19:05:31.954Z,98789.85
2023-05-10T19:10:33.724Z,98793.58
2023-05-10T19:15:38.642Z,98794.31
2023-05-10T19:20:42.525Z,98796.77
2023-05-10T19:25:46.293Z,98800.14
2023-05-10T19:30:50.308Z,98803.48
2023-05-10T19:35:53.620Z,98804.75
2023-05-10T19:40:58.281Z,98808.41
2023-05-10T19:46:02.277Z,98814.64
2023-05-10T19:51:07.718Z,98821.73
2023-05-10T19:56:11.328Z,98819.48
2023-05-10T20:01:13.725Z,98822.77
2023-05-10T20:06:15.529Z,98824.70
2023-05-10T20:11:17.278Z,98826.62
2023-05-10T20:16:18.947Z,98828.91
2023-05-10T20:21:22.308Z,98833.77
2023-05-10T20:26:24.087Z,98831.20
2023-05-10T20:31:25.786Z,98833.11
2023-05-10T20:36:27.628Z,98835.85
2023-05-10T20:41:29.267Z,98836.64
2023-05-10T20:46:31.608Z,98839.86
2023-05-10T20:51:33.488Z,98844.95
2023-05-10T20:56:35.226Z,98846.08
2023-05-10T21:01:36.923Z,98842.55
2023-05-10T21:06:39.060Z,98848.67
2023-05-10T21:11:41.763Z,98852.54
2023-05-10T21:16:44.660Z,98850.57
2023-05-10T21:21:46.522Z,98851.71
2023-05-10T21:26:48.275Z,98850.09
2023-05-10T21:31:51.097Z,98852.44
2023-05-10T21:36:54.533Z,98854.61
2023-05-10T21:41:56.966Z,98855.77
2023-05-10T21:47:01.195Z,98856.20
2023-05-10T21:52:04.678Z,98860.38
2023-05-10T21:57:06.334Z,98861.95
2023-05-10T22:02:08.257Z,98868.84
2023-05-10T22:07:10.151Z,98870.23
2023-05-10T22:12:12.986Z,98870.42
2023-05-10T22:17:14.922Z,98874.77
2023-05-10T22:22:16.853Z,98883.27
2023-05-10T22:27:18.575Z,98886.28
2023-05-10T22:32:20.249Z,98891.00
2023-05-10T22:37:21.975Z,98891.23
2023-05-10T22:42:23.597Z,98893.58
2023-05-10T22:47:25.657Z,98891.06
2023-05-10T22:52:27.492Z,98902.29
2023-05-10T22:57:29.214Z,98905.49
2023-05-10T23:02:31.715Z,98906.48
2023-05-10T23:07:34.478Z,98906.15
2023-05-10T23:12:38.692Z,98906.50
2023-05-10T23:17:42.605Z,98908.12
2023-05-10T23:22:44.871Z,98908.89
2023-05-10T23:27:46.676Z,98909.19
2023-05-10T23:32:48.401Z,98909.73
2023-05-10T23:37:50.588Z,98908.28
2023-05-10T23:42:53.712Z,98908.21
2023-05-10T23:47:56.709Z,98909.37
2023-05-10T23:52:58.621Z,98910.52
2023-05-10T23:58:00.544Z,98910.13
